Terminal Aerodrome Forecast
Issued by NWS Cleveland, OH

Home | Current Version | Previous Version | Graphics & Text | Print | Product List | Glossary On
Versions: 1 2 3 4 5 6 7 8 9 10 11 12 13 14 15 16 17 18
000
FTUS41 KCLE 031739
TAFMFD
TAF
KMFD 031739Z 0318/0418 09006KT P6SM SCT035 BKN200
     FM032300 03006KT P6SM VCSH BKN060 OVC150
     FM040300 02004KT P6SM SCT060 OVC100
     FM040900 35003KT 6SM BR BKN100
     FM041300 34007KT P6SM SCT020 BKN200=

USA.gov is the U.S. government's official web portal to all federal, state and local government web resources and services.